Nearby METAR Reports

 

KTOP - Billard Municipal Airport, Topeka, Kansas, USA
Updated: Thu, 17-Aug-2017 11:53pm CDT
Clear
Clear
 Wind from calm
Wind: Calm
Temperature: 64°F , 18°C
Dew Point: 63°F , 17°C
Humidity: 94%
Barometer: 29.95 inHg , 1014.2 hPa
Clouds: Clear
Visibility: 10 miles , 16 km
2017/08/18 04:53 KTOP 180453Z AUTO 00000KT 10SM CLR 18/17 A2995 RMK AO2 SLP136 T01830172
KFOE - Forbes Field Airport, Topeka, Kansas, USA
Updated: Thu, 17-Aug-2017 11:53pm CDT
Clear
Clear
 Wind from S
Wind: S 3 mph , 6 km/h
Temperature: 68°F , 20°C
Dew Point: 63°F , 17°C
Humidity: 83%
Barometer: 29.96 inHg , 1014.6 hPa
Clouds: Clear
Visibility: 10 miles , 16 km
2017/08/18 04:53 KFOE 180453Z AUTO 19003KT 10SM CLR 20/17 A2996 RMK AO2 SLP136 T02000167